createdAt,value
2023-05-15T00:00:31.109Z,99.90
2023-05-15T00:02:59.048Z,99.90
2023-05-15T00:05:27.094Z,99.90
2023-05-15T00:07:54.988Z,99.90
2023-05-15T00:10:22.845Z,99.90
2023-05-15T00:12:50.557Z,99.90
2023-05-15T00:15:18.499Z,99.90
2023-05-15T00:17:46.284Z,99.90
2023-05-15T00:20:14.160Z,99.90
2023-05-15T00:22:41.927Z,99.90
2023-05-15T00:25:10.894Z,99.90
2023-05-15T00:27:38.551Z,99.90
2023-05-15T00:30:08.922Z,99.90
2023-05-15T00:32:36.688Z,99.90
2023-05-15T00:35:06.359Z,99.90
2023-05-15T00:37:34.089Z,99.90
2023-05-15T00:40:01.886Z,99.90
2023-05-15T00:42:30.232Z,99.90
2023-05-15T00:45:01.165Z,99.90
2023-05-15T00:47:30.240Z,99.90
2023-05-15T00:49:58.798Z,99.90
2023-05-15T00:52:27.054Z,99.90
2023-05-15T00:54:54.753Z,99.90
2023-05-15T00:57:25.121Z,99.90
2023-05-15T00:59:54.158Z,99.90
2023-05-15T01:02:22.263Z,99.90
2023-05-15T01:04:50.335Z,99.90
2023-05-15T01:07:18.170Z,99.90
2023-05-15T01:09:48.989Z,99.90
2023-05-15T01:12:18.386Z,99.90
2023-05-15T01:14:46.145Z,99.90
2023-05-15T01:17:13.836Z,99.90
2023-05-15T01:19:43.026Z,99.90
2023-05-15T01:22:44.409Z,99.90
2023-05-15T01:25:53.355Z,99.90
2023-05-15T01:28:26.896Z,99.90
2023-05-15T01:30:57.076Z,99.90
2023-05-15T01:33:28.553Z,99.90
2023-05-15T01:36:05.227Z,99.90
2023-05-15T01:38:38.915Z,99.90
2023-05-15T01:41:15.282Z,99.90
2023-05-15T01:43:45.494Z,99.90
2023-05-15T01:46:15.223Z,99.90
2023-05-15T01:48:44.909Z,99.90
2023-05-15T01:51:14.584Z,99.90
2023-05-15T01:53:43.460Z,99.90
2023-05-15T01:56:14.899Z,99.90
2023-05-15T01:58:44.311Z,99.90
2023-05-15T02:01:13.452Z,99.90
2023-05-15T02:03:42.174Z,99.90
2023-05-15T02:06:10.584Z,99.90
2023-05-15T02:08:39.273Z,99.90
2023-05-15T02:11:08.200Z,99.90
2023-05-15T02:13:37.296Z,99.90
2023-05-15T02:16:06.164Z,99.90
2023-05-15T02:18:35.305Z,99.90
2023-05-15T02:21:03.567Z,99.90
2023-05-15T02:23:31.238Z,99.90
2023-05-15T02:26:13.718Z,99.90
2023-05-15T02:28:52.747Z,99.90
2023-05-15T02:31:30.120Z,99.90
2023-05-15T02:34:08.846Z,99.90
2023-05-15T02:36:40.151Z,99.90
2023-05-15T02:39:09.491Z,99.90
2023-05-15T02:41:37.906Z,99.90
2023-05-15T02:44:07.063Z,99.90
2023-05-15T02:46:36.100Z,99.90
2023-05-15T02:49:04.912Z,99.90
2023-05-15T02:51:32.968Z,99.90
2023-05-15T02:54:01.341Z,99.90
2023-05-15T02:56:29.086Z,99.90
2023-05-15T02:58:57.091Z,99.90
2023-05-15T03:01:24.837Z,99.90
2023-05-15T03:03:52.706Z,99.90
2023-05-15T03:06:20.719Z,99.90
2023-05-15T03:08:48.503Z,99.90
2023-05-15T03:11:18.482Z,99.90
2023-05-15T03:16:33.795Z,99.90
2023-05-15T03:19:01.545Z,99.90
2023-05-15T03:21:29.449Z,99.90
2023-05-15T03:23:57.163Z,99.90
2023-05-15T03:26:25.080Z,99.90
2023-05-15T03:28:52.791Z,99.90
2023-05-15T03:31:20.528Z,99.90
2023-05-15T03:33:50.669Z,99.90
2023-05-15T03:36:18.387Z,99.90
2023-05-15T03:38:46.366Z,99.90
2023-05-15T03:41:14.137Z,99.90
2023-05-15T03:43:41.865Z,99.90
2023-05-15T03:46:09.597Z,99.90
2023-05-15T03:48:37.348Z,99.90
2023-05-15T03:51:05.345Z,99.90
2023-05-15T03:53:33.172Z,99.90
2023-05-15T03:56:00.961Z,99.90
2023-05-15T03:58:31.375Z,99.90
2023-05-15T04:00:59.235Z,99.90
2023-05-15T04:03:27.026Z,99.90
2023-05-15T04:05:54.980Z,99.90
2023-05-15T04:08:22.669Z,99.90
2023-05-15T04:10:51.209Z,99.90
2023-05-15T04:13:19.512Z,99.90
2023-05-15T04:15:48.083Z,99.90
2023-05-15T04:18:15.772Z,99.90
2023-05-15T04:20:43.618Z,99.90
2023-05-15T04:23:11.309Z,99.90
2023-05-15T04:25:41.806Z,99.90
2023-05-15T04:28:09.769Z,99.90
2023-05-15T04:30:37.636Z,99.90
2023-05-15T04:33:05.686Z,99.90
2023-05-15T04:35:33.890Z,99.90
2023-05-15T04:38:01.632Z,99.90
2023-05-15T04:40:29.604Z,99.90
2023-05-15T04:42:57.973Z,99.90
2023-05-15T04:45:25.966Z,99.90
2023-05-15T04:47:54.010Z,99.90
2023-05-15T04:50:22.596Z,99.90
2023-05-15T04:52:51.211Z,99.90
2023-05-15T04:55:19.173Z,99.90
2023-05-15T04:57:47.558Z,99.90
2023-05-15T05:00:16.951Z,99.90
2023-05-15T05:02:44.958Z,99.90
2023-05-15T05:05:14.005Z,99.90
2023-05-15T05:07:43.649Z,99.90
2023-05-15T05:13:01.279Z,99.90
2023-05-15T05:15:29.021Z,99.90
2023-05-15T05:17:56.777Z,99.90
2023-05-15T05:20:25.041Z,99.90
2023-05-15T05:22:52.712Z,99.90
2023-05-15T05:25:21.106Z,99.90
2023-05-15T05:27:48.786Z,99.90
2023-05-15T05:30:17.305Z,99.90
2023-05-15T05:32:45.159Z,99.90
2023-05-15T05:35:13.371Z,99.90
2023-05-15T05:37:41.641Z,99.90
2023-05-15T05:40:11.822Z,99.90
2023-05-15T05:42:39.538Z,99.90
2023-05-15T05:45:09.895Z,99.90
2023-05-15T05:47:37.630Z,99.90
2023-05-15T05:50:08.515Z,99.90
2023-05-15T05:52:36.304Z,99.90
2023-05-15T05:55:05.349Z,99.90
2023-05-15T05:57:33.216Z,99.90
2023-05-15T06:00:01.017Z,99.90
2023-05-15T06:05:16.476Z,99.90
2023-05-15T06:07:44.403Z,99.90
2023-05-15T06:10:13.181Z,99.90
2023-05-15T06:12:41.032Z,99.90
2023-05-15T06:15:11.039Z,99.90
2023-05-15T06:17:39.099Z,99.90
2023-05-15T06:20:09.260Z,99.90
2023-05-15T06:22:37.228Z,99.90
2023-05-15T06:25:10.636Z,99.90
2023-05-15T06:27:38.341Z,99.90
2023-05-15T06:30:08.573Z,99.90
2023-05-15T06:32:36.415Z,99.90
2023-05-15T06:35:05.484Z,99.90
2023-05-15T06:37:33.406Z,99.90
2023-05-15T06:42:48.096Z,99.90
2023-05-15T06:48:05.406Z,99.90
2023-05-15T06:50:33.176Z,99.90
2023-05-15T06:53:00.967Z,99.90
2023-05-15T06:55:28.643Z,99.90
2023-05-15T06:57:56.441Z,99.90
2023-05-15T07:00:24.218Z,99.90
2023-05-15T07:02:51.989Z,99.90
2023-05-15T07:05:21.123Z,99.90
2023-05-15T07:07:48.858Z,99.90
2023-05-15T07:10:16.880Z,99.90
2023-05-15T07:12:44.612Z,99.90
2023-05-15T07:15:12.918Z,99.90
2023-05-15T07:17:40.869Z,99.90
2023-05-15T07:20:10.156Z,99.90
2023-05-15T07:22:44.651Z,99.90
2023-05-15T07:25:20.070Z,99.90
2023-05-15T07:27:47.843Z,99.90
2023-05-15T07:30:16.228Z,99.90
2023-05-15T07:32:44.067Z,99.90
2023-05-15T07:35:11.888Z,99.90
2023-05-15T07:37:40.674Z,99.90
2023-05-15T07:40:10.245Z,99.90
2023-05-15T07:42:39.127Z,99.90
2023-05-15T07:45:09.535Z,99.90
2023-05-15T07:47:37.555Z,99.90
2023-05-15T07:50:07.202Z,99.90
2023-05-15T07:52:35.093Z,99.90
2023-05-15T07:55:03.777Z,99.90
2023-05-15T07:57:31.663Z,99.90
2023-05-15T07:59:59.543Z,99.90
2023-05-15T08:02:27.468Z,99.90
2023-05-15T08:04:55.403Z,99.90
2023-05-15T08:07:23.842Z,99.90
2023-05-15T08:09:51.680Z,99.90
2023-05-15T08:12:21.462Z,99.90
2023-05-15T08:14:50.567Z,99.90
2023-05-15T08:17:18.962Z,99.90
2023-05-15T08:19:47.161Z,99.90
2023-05-15T08:22:15.246Z,99.90
2023-05-15T08:24:44.168Z,99.90
2023-05-15T08:27:12.051Z,99.90
2023-05-15T08:29:39.976Z,99.90
2023-05-15T08:32:08.662Z,99.90
2023-05-15T08:34:36.606Z,99.90
2023-05-15T08:37:05.977Z,99.90
2023-05-15T08:39:33.701Z,99.90
2023-05-15T08:42:08.255Z,99.90
2023-05-15T08:44:37.267Z,99.90
2023-05-15T08:47:06.507Z,99.90
2023-05-15T08:49:43.415Z,99.90
2023-05-15T08:54:57.714Z,99.90
2023-05-15T08:57:27.330Z,99.90
2023-05-15T08:59:56.392Z,99.90
2023-05-15T09:02:25.454Z,99.90
2023-05-15T09:04:53.238Z,99.90
2023-05-15T09:07:22.529Z,99.90
2023-05-15T09:09:51.273Z,99.90
2023-05-15T09:12:20.221Z,99.90
2023-05-15T09:14:48.602Z,99.90
2023-05-15T09:17:16.381Z,99.90
2023-05-15T09:19:44.187Z,99.90
2023-05-15T09:25:04.606Z,99.90
2023-05-15T09:27:42.740Z,99.90
2023-05-15T09:30:12.151Z,99.90
2023-05-15T09:32:40.048Z,99.90
2023-05-15T09:35:29.395Z,99.90
2023-05-15T09:38:00.725Z,99.90
2023-05-15T09:40:30.973Z,99.90
2023-05-15T09:42:59.253Z,99.90
2023-05-15T09:45:29.208Z,99.90
2023-05-15T09:47:59.358Z,99.90
2023-05-15T09:50:33.741Z,99.90
2023-05-15T09:53:01.748Z,99.90
2023-05-15T09:55:32.816Z,99.90
2023-05-15T09:58:08.656Z,99.90
2023-05-15T10:00:48.628Z,99.90
2023-05-15T10:03:19.333Z,99.90
2023-05-15T10:05:47.509Z,99.90
2023-05-15T10:08:16.001Z,99.90
2023-05-15T10:10:44.921Z,99.90
2023-05-15T10:13:12.798Z,99.90
2023-05-15T10:15:42.078Z,99.90
2023-05-15T10:18:11.273Z,99.90
2023-05-15T10:20:39.861Z,99.90
2023-05-15T10:23:12.641Z,99.90
2023-05-15T10:25:50.137Z,99.90
2023-05-15T10:28:18.577Z,99.90
2023-05-15T10:30:47.871Z,99.90
2023-05-15T10:33:16.430Z,99.90
2023-05-15T10:35:45.540Z,99.90
2023-05-15T10:38:13.871Z,99.90
2023-05-15T10:40:42.512Z,99.90
2023-05-15T10:43:11.410Z,99.90
2023-05-15T10:45:40.265Z,99.90
2023-05-15T10:48:11.497Z,99.90
2023-05-15T10:50:39.257Z,99.90
2023-05-15T10:53:08.750Z,99.90
2023-05-15T10:55:37.339Z,99.90
2023-05-15T10:58:09.657Z,99.90
2023-05-15T11:00:43.027Z,99.90
2023-05-15T11:03:14.324Z,99.90
2023-05-15T11:06:10.506Z,99.90
2023-05-15T11:08:40.783Z,99.90
2023-05-15T11:11:08.556Z,99.90
2023-05-15T11:17:03.652Z,99.90
2023-05-15T11:19:54.277Z,99.90
2023-05-15T11:22:27.356Z,99.90
2023-05-15T11:24:58.317Z,99.90
2023-05-15T11:27:29.256Z,99.90
2023-05-15T11:30:09.904Z,99.90
2023-05-15T11:32:47.828Z,99.90
2023-05-15T11:35:21.411Z,99.90
2023-05-15T11:37:50.623Z,99.90
2023-05-15T11:40:22.871Z,99.90
2023-05-15T11:43:01.884Z,99.90
2023-05-15T11:45:30.960Z,99.90
2023-05-15T11:48:02.113Z,99.90
2023-05-15T11:50:32.313Z,99.90
2023-05-15T11:53:03.750Z,99.90
2023-05-15T11:55:33.361Z,99.90
2023-05-15T11:58:01.602Z,99.90
2023-05-15T12:00:29.777Z,99.90
2023-05-15T12:02:58.005Z,99.90
2023-05-15T12:05:25.817Z,97.00
2023-05-15T12:07:53.732Z,18.80
2023-05-15T12:10:21.472Z,1.00
2023-05-15T12:12:49.586Z,1.00
2023-05-15T12:15:17.944Z,1.00
2023-05-15T12:17:46.070Z,1.00
2023-05-15T12:20:18.597Z,1.00
2023-05-15T12:22:46.442Z,1.00
2023-05-15T12:25:16.998Z,1.00
2023-05-15T12:27:45.078Z,1.00
2023-05-15T12:30:14.899Z,1.00
2023-05-15T12:32:43.206Z,1.00
2023-05-15T12:35:11.614Z,1.00
2023-05-15T12:37:39.549Z,1.00
2023-05-15T12:40:11.043Z,1.00
2023-05-15T12:42:43.186Z,1.00
2023-05-15T12:45:14.945Z,99.90
2023-05-15T12:47:43.333Z,99.90
2023-05-15T12:50:15.653Z,99.90
2023-05-15T12:52:50.223Z,99.90
2023-05-15T12:55:18.833Z,99.90
2023-05-15T12:57:46.580Z,99.90
2023-05-15T13:00:16.534Z,99.90
2023-05-15T13:02:45.152Z,99.90
2023-05-15T13:05:13.221Z,99.90
2023-05-15T13:07:42.962Z,99.90
2023-05-15T13:10:12.530Z,99.90
2023-05-15T13:12:43.134Z,99.90
2023-05-15T13:15:24.825Z,99.90
2023-05-15T13:17:58.753Z,99.90
2023-05-15T13:20:27.811Z,99.90
2023-05-15T13:22:55.785Z,99.90
2023-05-15T13:25:23.598Z,1.00
2023-05-15T13:27:51.977Z,99.10
2023-05-15T13:30:20.497Z,99.90
2023-05-15T13:32:48.242Z,99.90
2023-05-15T13:35:16.241Z,99.90
2023-05-15T13:37:44.131Z,99.90
2023-05-15T13:40:13.261Z,99.90
2023-05-15T13:42:43.102Z,99.90
2023-05-15T13:45:13.087Z,99.90
2023-05-15T13:47:41.170Z,99.90
2023-05-15T13:50:12.072Z,90.80
2023-05-15T13:52:41.104Z,99.90
2023-05-15T13:55:10.596Z,84.30
2023-05-15T13:57:39.377Z,99.90
2023-05-15T14:00:11.878Z,99.90
2023-05-15T14:02:39.996Z,99.90
2023-05-15T14:05:09.322Z,99.90
2023-05-15T14:07:37.772Z,99.90
2023-05-15T14:10:07.728Z,99.90
2023-05-15T14:12:36.171Z,99.90
2023-05-15T14:15:05.874Z,99.90
2023-05-15T14:17:34.407Z,99.90
2023-05-15T14:20:02.268Z,99.90
2023-05-15T14:22:30.100Z,99.90
2023-05-15T14:24:58.001Z,99.90
2023-05-15T14:27:25.842Z,99.90
2023-05-15T14:29:53.536Z,99.50
2023-05-15T14:32:21.286Z,99.90
2023-05-15T14:34:49.120Z,83.00
2023-05-15T14:37:17.675Z,65.00
2023-05-15T14:39:45.441Z,99.90
2023-05-15T14:42:13.295Z,94.80
2023-05-15T14:44:40.963Z,99.90
2023-05-15T14:47:11.692Z,99.90
2023-05-15T14:49:40.779Z,99.90
2023-05-15T14:52:09.644Z,99.90
2023-05-15T14:57:27.970Z,99.90
2023-05-15T14:59:55.781Z,99.90
2023-05-15T15:02:23.698Z,99.90
2023-05-15T15:04:51.571Z,99.90
2023-05-15T15:07:19.381Z,99.90
2023-05-15T15:09:47.115Z,99.90
2023-05-15T15:12:14.809Z,99.90
2023-05-15T15:14:42.500Z,99.90
2023-05-15T15:17:10.243Z,99.90
2023-05-15T15:19:38.019Z,71.90
2023-05-15T15:22:06.127Z,99.90
2023-05-15T15:24:33.874Z,99.90
2023-05-15T15:27:01.757Z,99.90
2023-05-15T15:29:29.532Z,99.90
2023-05-15T15:31:57.315Z,28.40
2023-05-15T15:34:25.158Z,6.50
2023-05-15T15:36:53.105Z,90.70
2023-05-15T15:39:20.864Z,64.10
2023-05-15T15:41:48.594Z,1.00
2023-05-15T15:44:16.332Z,1.00
2023-05-15T15:46:44.641Z,1.00
2023-05-15T15:49:12.383Z,1.00
2023-05-15T15:51:40.848Z,1.00
2023-05-15T15:54:08.578Z,1.00
2023-05-15T15:56:36.544Z,1.00
2023-05-15T15:59:04.416Z,1.00
2023-05-15T16:01:33.465Z,1.00
2023-05-15T16:04:01.277Z,1.00
2023-05-15T16:06:29.140Z,1.00
2023-05-15T16:08:57.222Z,1.00
2023-05-15T16:11:25.325Z,1.00
2023-05-15T16:13:53.262Z,1.00
2023-05-15T16:16:21.651Z,1.00
2023-05-15T16:18:49.569Z,1.00
2023-05-15T16:21:17.382Z,1.00
2023-05-15T16:23:45.162Z,1.00
2023-05-15T16:26:13.236Z,1.00
2023-05-15T16:28:41.911Z,1.00
2023-05-15T16:31:09.780Z,1.00
2023-05-15T16:33:37.608Z,27.80
2023-05-15T16:36:06.663Z,25.90
2023-05-15T16:38:35.455Z,98.70
2023-05-15T16:41:03.440Z,96.40
2023-05-15T16:43:31.362Z,99.90
2023-05-15T16:45:59.200Z,99.90
2023-05-15T16:48:27.412Z,99.90
2023-05-15T16:50:55.413Z,99.90
2023-05-15T16:53:23.293Z,99.90
2023-05-15T16:55:51.157Z,1.00
2023-05-15T16:58:19.446Z,1.00
2023-05-15T17:00:47.497Z,1.00
2023-05-15T17:03:16.883Z,1.00
2023-05-15T17:05:46.629Z,1.00
2023-05-15T17:08:14.529Z,1.00
2023-05-15T17:10:42.416Z,1.00
2023-05-15T17:13:10.344Z,1.30
2023-05-15T17:15:38.239Z,34.80
2023-05-15T17:18:06.363Z,72.50
2023-05-15T17:20:34.262Z,77.60
2023-05-15T17:23:02.162Z,90.00
2023-05-15T17:25:30.216Z,91.10
2023-05-15T17:27:58.283Z,98.90
2023-05-15T17:30:26.360Z,99.90
2023-05-15T17:38:30.771Z,99.90
2023-05-15T17:40:59.249Z,99.90
2023-05-15T17:43:27.050Z,99.90
2023-05-15T17:45:54.964Z,99.90
2023-05-15T17:48:22.983Z,99.90
2023-05-15T17:50:51.067Z,99.90
2023-05-15T17:53:19.013Z,99.90
2023-05-15T17:55:47.270Z,49.80
2023-05-15T17:58:15.235Z,95.10
2023-05-15T18:00:43.244Z,99.90
2023-05-15T18:03:11.197Z,85.60
2023-05-15T18:05:39.365Z,34.50
2023-05-15T18:08:07.272Z,8.70
2023-05-15T18:10:35.353Z,26.80
2023-05-15T18:13:03.178Z,36.20
2023-05-15T18:15:31.549Z,65.80
2023-05-15T18:17:59.547Z,92.20
2023-05-15T18:20:27.557Z,96.20
2023-05-15T18:22:55.777Z,99.90
2023-05-15T18:25:23.802Z,99.90
2023-05-15T18:27:52.158Z,99.90
2023-05-15T18:30:20.297Z,99.90
2023-05-15T18:32:48.555Z,99.90
2023-05-15T18:35:16.771Z,99.90
2023-05-15T18:37:44.744Z,99.90
2023-05-15T18:40:13.907Z,99.90
2023-05-15T18:42:41.917Z,99.90
2023-05-15T18:45:12.497Z,99.90
2023-05-15T18:47:40.896Z,99.90
2023-05-15T18:50:11.272Z,99.90
2023-05-15T18:52:39.811Z,99.90
2023-05-15T18:55:10.373Z,99.90
2023-05-15T18:57:38.773Z,99.90
2023-05-15T19:00:08.905Z,99.90
2023-05-15T19:05:27.105Z,99.90
2023-05-15T19:07:55.190Z,99.90
2023-05-15T19:10:23.070Z,99.90
2023-05-15T19:12:50.997Z,99.90
2023-05-15T19:15:19.042Z,99.90
2023-05-15T19:17:47.034Z,99.90
2023-05-15T19:20:15.505Z,99.90
2023-05-15T19:22:43.494Z,99.90
2023-05-15T19:25:11.700Z,99.90
2023-05-15T19:27:39.868Z,99.90
2023-05-15T19:33:00.271Z,99.90
2023-05-15T19:35:28.413Z,99.90
2023-05-15T19:37:56.526Z,99.90
2023-05-15T19:43:10.812Z,99.90
2023-05-15T19:45:41.614Z,99.90
2023-05-15T19:48:10.254Z,99.90
2023-05-15T19:50:39.549Z,99.90
2023-05-15T19:53:07.858Z,99.90
2023-05-15T19:55:35.864Z,99.90
2023-05-15T19:58:04.418Z,99.90
2023-05-15T20:03:19.911Z,99.90
2023-05-15T20:05:48.134Z,99.90
2023-05-15T20:08:16.474Z,99.90
2023-05-15T20:10:50.288Z,99.90
2023-05-15T20:13:19.048Z,99.90
2023-05-15T20:15:47.549Z,99.90
2023-05-15T20:18:15.546Z,99.90
2023-05-15T20:23:29.288Z,99.90
2023-05-15T20:25:57.567Z,99.90
2023-05-15T20:28:26.625Z,99.90
2023-05-15T20:30:56.569Z,99.90
2023-05-15T20:33:24.827Z,99.90
2023-05-15T20:35:53.404Z,99.90
2023-05-15T20:38:23.594Z,99.90
2023-05-15T20:40:52.503Z,99.90
2023-05-15T20:43:20.464Z,99.90
2023-05-15T20:45:48.528Z,99.90
2023-05-15T20:48:16.667Z,99.90
2023-05-15T20:50:44.620Z,99.90
2023-05-15T20:53:12.926Z,99.90
2023-05-15T20:55:41.023Z,99.90
2023-05-15T20:58:09.393Z,99.90
2023-05-15T21:00:37.547Z,99.90
2023-05-15T21:03:05.735Z,99.90
2023-05-15T21:05:33.903Z,99.90
2023-05-15T21:08:02.226Z,99.90
2023-05-15T21:10:30.265Z,99.90
2023-05-15T21:12:59.513Z,99.90
2023-05-15T21:17:55.494Z,99.90
2023-05-15T21:20:23.693Z,99.90
2023-05-15T21:22:51.803Z,99.90
2023-05-15T21:25:20.170Z,99.90
2023-05-15T21:27:48.111Z,99.90
2023-05-15T21:33:05.998Z,99.90
2023-05-15T21:38:21.022Z,99.90
2023-05-15T21:43:16.485Z,99.90
2023-05-15T21:45:44.551Z,99.90
2023-05-15T21:48:12.396Z,99.90
2023-05-15T21:50:40.471Z,99.90
2023-05-15T21:55:36.217Z,99.90
2023-05-15T21:58:04.106Z,99.90
2023-05-15T22:00:31.914Z,99.90
2023-05-15T22:03:00.071Z,99.90
2023-05-15T22:08:14.535Z,99.90
2023-05-15T22:10:42.423Z,99.90
2023-05-15T22:13:10.464Z,99.90
2023-05-15T22:15:38.425Z,99.90
2023-05-15T22:18:07.467Z,99.90
2023-05-15T22:20:36.407Z,99.90
2023-05-15T22:25:32.149Z,99.90
2023-05-15T22:27:59.974Z,99.90
2023-05-15T22:30:28.325Z,99.90
2023-05-15T22:32:56.500Z,99.90
2023-05-15T22:35:24.613Z,99.90
2023-05-15T22:37:52.854Z,99.90
2023-05-15T22:40:21.673Z,99.90
2023-05-15T22:42:49.560Z,99.90
2023-05-15T22:45:18.688Z,99.90
2023-05-15T22:47:46.901Z,99.90
2023-05-15T22:50:14.874Z,99.90
2023-05-15T22:52:42.612Z,99.90
2023-05-15T22:55:12.206Z,99.90
2023-05-15T22:57:39.960Z,99.90
2023-05-15T23:00:10.281Z,99.90
2023-05-15T23:02:38.781Z,99.90
2023-05-15T23:05:08.195Z,99.90
2023-05-15T23:07:35.942Z,99.90
2023-05-15T23:10:04.665Z,99.90
2023-05-15T23:12:32.685Z,99.90
2023-05-15T23:15:01.006Z,99.90
2023-05-15T23:17:28.785Z,99.90
2023-05-15T23:22:24.314Z,99.90
2023-05-15T23:24:52.090Z,99.90
2023-05-15T23:27:20.112Z,99.90
2023-05-15T23:29:47.918Z,99.90
2023-05-15T23:35:02.612Z,99.90
2023-05-15T23:37:30.370Z,99.90
2023-05-15T23:45:30.916Z,99.90
2023-05-15T23:50:46.295Z,99.90
2023-05-15T23:56:02.010Z,99.90
2023-05-15T23:58:30.474Z,99.90
